Time;durP1;ratioP1;P1;durP2;ratioP2;P2;SDS_P1;SDS_P2;PMS_P1;PMS_P2;Temp;Humidity;BMP_temperature;BMP_pressure;BME280_temperature;BME280_humidity;BME280_pressure;Samples;Min_cycle;Max_cycle;Signal;HPM_P1;HPM_P2
2023/05/28 00:01:01;;;;;;;5.07;3.00;;;;;;;13.41;100.00;101877.66;6201248;28;20332;-70
2023/05/28 00:04:02;;;;;;;6.47;2.70;;;;;;;13.34;100.00;101876.22;6202076;28;20061;-70
2023/05/28 00:07:03;;;;;;;6.57;2.60;;;;;;;13.26;100.00;101888.91;6201870;28;20439;-70
2023/05/28 00:10:07;;;;;;;8.88;3.05;;;;;;;13.18;100.00;101885.75;6185858;28;20054;-70
2023/05/28 00:13:09;;;;;;;7.13;3.13;;;;;;;13.15;100.00;101886.72;6177600;28;20359;-70
2023/05/28 00:16:12;;;;;;;9.15;2.95;;;;;;;13.11;100.00;101881.66;6178022;28;20062;-70
2023/05/28 00:19:14;;;;;;;8.98;3.08;;;;;;;13.14;100.00;101882.38;6176989;28;20458;-70
2023/05/28 00:22:15;;;;;;;6.65;3.08;;;;;;;13.17;100.00;101881.38;6194718;28;20046;-70
2023/05/28 00:25:18;;;;;;;9.50;2.90;;;;;;;13.07;100.00;101872.16;6199388;28;20049;-70
2023/05/28 00:28:20;;;;;;;5.75;2.78;;;;;;;13.05;100.00;101868.75;6199462;28;20054;-70
2023/05/28 00:31:21;;;;;;;5.60;2.90;;;;;;;12.97;100.00;101865.59;6193729;28;20042;-70
2023/05/28 00:34:22;;;;;;;10.27;3.38;;;;;;;12.91;100.00;101859.69;6190764;28;20054;-71
2023/05/28 00:37:24;;;;;;;7.90;3.17;;;;;;;12.84;100.00;101860.88;6186339;28;20065;-70
2023/05/28 00:40:26;;;;;;;6.68;3.25;;;;;;;12.78;100.00;101855.88;6194889;28;20047;-70
2023/05/28 00:43:28;;;;;;;7.47;3.47;;;;;;;12.75;100.00;101863.94;6201378;28;20054;-70
2023/05/28 00:46:30;;;;;;;6.35;3.03;;;;;;;12.75;100.00;101858.66;6201290;28;20053;-70
2023/05/28 00:49:33;;;;;;;10.23;3.60;;;;;;;12.66;100.00;101865.19;6200828;28;20054;-70
2023/05/28 00:52:35;;;;;;;6.00;3.08;;;;;;;12.60;100.00;101862.81;6201066;28;20050;-70
2023/05/28 00:55:38;;;;;;;11.75;3.45;;;;;;;12.61;100.00;101861.03;6199876;28;20049;-70
2023/05/28 00:58:40;;;;;;;9.00;2.95;;;;;;;12.59;100.00;101865.53;6196178;28;20352;-70
2023/05/28 01:01:42;;;;;;;9.38;3.60;;;;;;;12.56;100.00;101861.25;6197741;28;20042;-70
2023/05/28 01:04:43;;;;;;;13.48;3.92;;;;;;;12.55;100.00;101867.44;6201027;28;20351;-70
2023/05/28 01:07:45;;;;;;;7.65;3.72;;;;;;;12.50;100.00;101856.25;6200917;28;20061;-70
2023/05/28 01:10:48;;;;;;;6.00;2.63;;;;;;;12.44;100.00;101854.75;6200235;28;20358;-70
2023/05/28 01:13:50;;;;;;;9.60;3.08;;;;;;;12.37;100.00;101853.28;6200866;28;20057;-70
2023/05/28 01:16:52;;;;;;;6.20;3.35;;;;;;;12.35;100.00;101848.97;6201364;28;20432;-70
2023/05/28 01:19:53;;;;;;;6.65;3.38;;;;;;;12.32;100.00;101841.22;6200327;28;20057;-70
2023/05/28 01:22:56;;;;;;;6.20;3.45;;;;;;;12.28;100.00;101840.50;6200949;28;20439;-70
2023/05/28 01:26:00;;;;;;;6.57;2.35;;;;;;;12.31;100.00;101839.50;6191387;28;20046;-70
2023/05/28 01:29:01;;;;;;;8.80;3.72;;;;;;;12.26;100.00;101833.56;6176006;28;20336;-70
2023/05/28 01:32:03;;;;;;;6.05;2.97;;;;;;;12.18;100.00;101840.03;6176704;28;20051;-71
2023/05/28 01:35:07;;;;;;;4.88;2.80;;;;;;;12.07;100.00;101833.50;6176883;28;20053;-70
2023/05/28 01:38:10;;;;;;;7.97;3.20;;;;;;;12.04;100.00;101841.56;6179418;28;20051;-70
2023/05/28 01:41:14;;;;;;;4.28;2.53;;;;;;;11.98;100.00;101842.63;6180804;28;20046;-70
2023/05/28 01:44:18;;;;;;;6.38;2.83;;;;;;;11.92;100.00;101843.75;6190517;28;20043;-70
2023/05/28 01:47:20;;;;;;;4.82;2.42;;;;;;;11.91;100.00;101842.06;6205009;28;20050;-70
2023/05/28 01:50:22;;;;;;;5.75;2.67;;;;;;;11.76;100.00;101840.00;6204553;28;20054;-70
2023/05/28 01:53:24;;;;;;;6.15;3.10;;;;;;;11.78;100.00;101846.06;6204813;28;20447;-71
2023/05/28 01:56:27;;;;;;;10.20;2.88;;;;;;;11.84;100.00;101842.34;6204185;28;20138;-70
2023/05/28 01:59:29;;;;;;;6.20;2.58;;;;;;;11.80;100.00;101840.72;6203734;28;20057;-70
2023/05/28 02:02:30;;;;;;;6.47;2.60;;;;;;;11.83;100.00;101843.28;6204941;28;20053;-70
2023/05/28 02:05:32;;;;;;;4.93;3.00;;;;;;;11.80;100.00;101838.94;6204769;28;20458;-70
2023/05/28 02:08:33;;;;;;;7.25;2.75;;;;;;;11.84;100.00;101848.47;6204824;28;20429;-70
2023/05/28 02:11:36;;;;;;;6.15;3.03;;;;;;;11.75;100.00;101845.34;6200353;28;20435;-70
2023/05/28 02:14:37;;;;;;;6.63;2.33;;;;;;;11.74;100.00;101846.25;6200374;28;20046;-70
2023/05/28 02:17:39;;;;;;;4.55;2.35;;;;;;;11.65;100.00;101844.84;6204513;28;20054;-70
2023/05/28 02:20:40;;;;;;;4.82;2.72;;;;;;;11.65;100.00;101847.47;6195570;28;20352;-70
2023/05/28 02:23:45;;;;;;;4.78;2.28;;;;;;;11.60;100.00;101854.72;6196224;28;20045;-70
2023/05/28 02:26:47;;;;;;;7.22;2.67;;;;;;;11.56;100.00;101850.50;6194442;28;20051;-70
2023/05/28 02:29:48;;;;;;;3.80;2.15;;;;;;;11.56;100.00;101843.44;6179518;28;20058;-70
2023/05/28 02:32:50;;;;;;;7.65;3.08;;;;;;;11.44;100.00;101846.56;6195123;28;20066;-70
2023/05/28 02:35:51;;;;;;;7.45;3.72;;;;;;;11.41;100.00;101842.28;6201760;28;20050;-70
2023/05/28 02:38:52;;;;;;;9.30;3.25;;;;;;;11.34;100.00;101843.44;6203220;28;20057;-70
2023/05/28 02:41:55;;;;;;;6.63;2.45;;;;;;;11.34;100.00;101843.44;6204000;28;20617;-70
2023/05/28 02:44:56;;;;;;;10.00;3.65;;;;;;;11.31;100.00;101845.31;6195691;28;20046;-70
2023/05/28 02:47:58;;;;;;;7.90;3.40;;;;;;;11.23;100.00;101837.72;6203535;28;20136;-70
2023/05/28 02:50:59;;;;;;;9.20;3.47;;;;;;;11.18;100.00;101837.06;6202550;28;20050;-70
2023/05/28 02:54:00;;;;;;;8.27;3.72;;;;;;;11.16;100.00;101834.47;6203808;28;20054;-70
2023/05/28 02:57:03;;;;;;;7.85;3.33;;;;;;;11.14;100.00;101828.41;6200137;28;20065;-70
2023/05/28 03:00:09;;;;;;;7.28;3.05;;;;;;;11.19;100.00;101836.13;6198392;28;20050;-70
2023/05/28 03:03:10;;;;;;;7.10;3.20;;;;;;;11.15;100.00;101831.91;6203372;28;20046;-70
2023/05/28 03:06:13;;;;;;;6.07;3.25;;;;;;;11.16;100.00;101829.19;6203476;28;20054;-70
2023/05/28 03:09:14;;;;;;;5.90;3.03;;;;;;;11.15;100.00;101835.38;6202435;28;20451;-70
2023/05/28 03:12:16;;;;;;;11.55;3.75;;;;;;;11.07;100.00;101836.59;6202349;28;20049;-70
2023/05/28 03:15:18;;;;;;;7.50;2.65;;;;;;;11.10;100.00;101826.81;6196271;28;20046;-70
2023/05/28 03:18:19;;;;;;;10.70;3.00;;;;;;;11.16;100.00;101828.34;6202982;28;20046;-70
2023/05/28 03:21:20;;;;;;;7.43;3.50;;;;;;;11.11;100.00;101841.69;6202415;28;20051;-70
2023/05/28 03:24:22;;;;;;;6.82;3.42;;;;;;;11.07;100.00;101840.06;6202707;28;20050;-70
2023/05/28 03:27:24;;;;;;;6.60;2.85;;;;;;;11.05;100.00;101838.44;6201213;28;20047;-70
2023/05/28 03:30:26;;;;;;;8.50;3.60;;;;;;;10.97;100.00;101843.97;6202102;28;20058;-70
2023/05/28 03:33:28;;;;;;;11.52;3.50;;;;;;;10.99;100.00;101842.16;6202743;28;20042;-70
2023/05/28 03:36:30;;;;;;;8.27;4.50;;;;;;;11.03;100.00;101848.16;6202285;28;20050;-70
2023/05/28 03:39:31;;;;;;;6.70;3.33;;;;;;;11.08;100.00;101848.81;6202028;28;20046;-70
2023/05/28 03:42:34;;;;;;;8.88;3.00;;;;;;;11.09;100.00;101851.41;6202424;28;20050;-70
2023/05/28 03:45:35;;;;;;;6.88;3.58;;;;;;;11.15;100.00;101847.69;6202582;28;20051;-70
2023/05/28 03:48:36;;;;;;;11.52;2.95;;;;;;;11.09;100.00;101845.31;6202429;28;20046;-70
2023/05/28 03:51:38;;;;;;;10.23;3.70;;;;;;;11.06;100.00;101843.63;6201439;28;20042;-70
2023/05/28 03:54:39;;;;;;;6.90;3.35;;;;;;;11.06;100.00;101843.63;6202299;28;20049;-70
2023/05/28 03:57:42;;;;;;;7.03;3.42;;;;;;;11.11;100.00;101851.34;6185357;28;20477;-70
2023/05/28 04:00:43;;;;;;;6.82;3.25;;;;;;;11.12;100.00;101848.66;6179624;28;20057;-70
2023/05/28 04:03:44;;;;;;;7.88;3.13;;;;;;;11.09;100.00;101845.31;6180487;28;20046;-70
2023/05/28 04:06:46;;;;;;;6.18;2.42;;;;;;;11.06;100.00;101848.03;6179756;28;20522;-70
2023/05/28 04:09:47;;;;;;;6.78;3.65;;;;;;;11.04;100.00;101844.63;6178732;28;20049;-70
2023/05/28 04:12:50;;;;;;;11.60;3.38;;;;;;;11.05;100.00;101852.44;6181218;28;20053;-70
2023/05/28 04:15:52;;;;;;;8.45;3.85;;;;;;;11.08;100.00;101852.34;6180575;28;20053;-70
2023/05/28 04:18:53;;;;;;;9.40;3.60;;;;;;;11.13;100.00;101852.16;6177801;28;20577;-70
2023/05/28 04:21:55;;;;;;;13.95;4.22;;;;;;;11.19;100.00;101854.56;6179392;28;20354;-71
2023/05/28 04:24:56;;;;;;;6.00;3.58;;;;;;;11.16;100.00;101858.16;6179750;28;20057;-70
2023/05/28 04:28:00;;;;;;;5.45;2.85;;;;;;;11.21;100.00;101851.84;6168140;28;20329;-70
2023/05/28 04:31:01;;;;;;;6.95;3.40;;;;;;;11.21;100.00;101850.06;6158083;28;20488;-70
2023/05/28 04:34:04;;;;;;;7.43;3.50;;;;;;;11.28;100.00;101841.03;6173066;28;20053;-70
2023/05/28 04:37:05;;;;;;;7.13;3.53;;;;;;;11.37;100.00;101851.22;6171309;28;20193;-70
2023/05/28 04:40:11;;;;;;;5.38;3.30;;;;;;;11.40;100.00;101850.25;6178394;28;20054;-70
2023/05/28 04:43:13;;;;;;;7.63;3.38;;;;;;;11.40;100.00;101847.63;6171383;28;20482;-70
2023/05/28 04:46:15;;;;;;;7.43;3.40;;;;;;;11.45;100.00;101848.28;6176471;28;20054;-70
2023/05/28 04:49:16;;;;;;;5.72;2.78;;;;;;;11.49;100.00;101849.88;6179010;28;20046;-70
2023/05/28 04:52:17;;;;;;;6.85;3.53;;;;;;;11.48;100.00;101852.56;6179899;28;20077;-70
2023/05/28 04:55:19;;;;;;;7.00;3.30;;;;;;;11.48;100.00;101855.19;6179234;28;20047;-70
2023/05/28 04:58:22;;;;;;;10.18;3.78;;;;;;;11.50;100.00;101850.75;6187673;28;20050;-70
2023/05/28 05:01:24;;;;;;;6.38;2.97;;;;;;;11.57;100.00;101850.41;6190542;28;20050;-70
2023/05/28 05:04:26;;;;;;;6.07;3.28;;;;;;;11.62;100.00;101851.09;6188914;28;20454;-70
2023/05/28 05:07:28;;;;;;;9.05;3.30;;;;;;;11.66;100.00;101849.19;6188722;28;20074;-71
2023/05/28 05:10:30;;;;;;;8.75;3.97;;;;;;;11.68;100.00;101842.97;6185580;28;20063;-70
2023/05/28 05:13:32;;;;;;;7.63;3.33;;;;;;;11.74;100.00;101844.47;6192003;28;20045;-70
2023/05/28 05:16:34;;;;;;;8.90;2.90;;;;;;;11.79;100.00;101852.19;6191639;28;20436;-70
2023/05/28 05:19:35;;;;;;;6.65;3.47;;;;;;;11.81;100.00;101858.25;6192266;28;20054;-70
2023/05/28 05:22:37;;;;;;;7.13;3.40;;;;;;;11.81;100.00;101856.50;6191821;28;20039;-70
2023/05/28 05:25:38;;;;;;;6.15;3.33;;;;;;;11.89;100.00;101858.81;6187294;28;20054;-71
2023/05/28 05:28:41;;;;;;;9.10;3.33;;;;;;;11.94;100.00;101859.50;6180986;28;20047;-70
2023/05/28 05:31:42;;;;;;;5.45;2.55;;;;;;;12.01;100.00;101858.34;6181355;28;20134;-70
2023/05/28 05:34:44;;;;;;;5.45;2.78;;;;;;;12.09;100.00;101850.97;6181375;28;20444;-70
2023/05/28 05:37:45;;;;;;;7.35;2.90;;;;;;;12.15;100.00;101855.13;6181147;28;20061;-70
2023/05/28 05:40:46;;;;;;;9.23;3.38;;;;;;;12.22;100.00;101851.31;6180647;28;20076;-70
2023/05/28 05:43:49;;;;;;;9.93;3.25;;;;;;;12.27;100.00;101857.25;6192685;28;20050;-70
2023/05/28 05:46:50;;;;;;;9.73;3.38;;;;;;;12.34;100.00;101853.41;6187178;28;20055;-70
2023/05/28 05:49:52;;;;;;;6.88;3.38;;;;;;;12.42;100.00;101853.09;6181414;28;20058;-70
2023/05/28 05:52:54;;;;;;;4.75;2.65;;;;;;;12.46;100.00;101852.03;6180530;28;20336;-70
2023/05/28 05:55:56;;;;;;;8.63;2.78;;;;;;;12.52;100.00;101856.16;6180864;28;20066;-70
2023/05/28 05:58:59;;;;;;;7.47;3.42;;;;;;;12.58;100.00;101858.53;6179967;28;20058;-70
2023/05/28 06:02:00;;;;;;;4.00;2.38;;;;;;;12.62;100.00;101860.97;6180900;28;20053;-70
2023/05/28 06:05:03;;;;;;;11.88;3.92;;;;;;;12.68;100.00;101860.72;6184586;28;20050;-70
2023/05/28 06:08:05;;;;;;;5.07;3.08;;;;;;;12.74;100.00;101864.84;6191758;28;20050;-70
2023/05/28 06:11:07;;;;;;;8.95;4.20;;;;;;;12.80;100.00;101861.94;6203346;28;20054;-70
2023/05/28 06:14:09;;;;;;;6.32;2.97;;;;;;;12.87;100.00;101858.09;6204513;28;20054;-70
2023/05/28 06:17:11;;;;;;;9.35;3.42;;;;;;;12.95;100.00;101855.13;6185635;28;20129;-71
2023/05/28 06:20:13;;;;;;;6.47;3.10;;;;;;;13.01;100.00;101856.63;6203935;28;20050;-71
2023/05/28 06:23:14;;;;;;;6.85;3.00;;;;;;;13.09;100.00;101860.63;6203186;28;20105;-70
2023/05/28 06:26:16;;;;;;;7.30;2.95;;;;;;;13.16;100.00;101859.41;6201232;28;20054;-71
2023/05/28 06:29:18;;;;;;;6.15;3.03;;;;;;;13.19;100.00;101848.72;6188891;28;20459;-71
2023/05/28 06:32:20;;;;;;;7.72;3.33;;;;;;;13.25;100.00;101857.31;6191121;28;20054;-70
2023/05/28 06:35:21;;;;;;;8.40;4.18;;;;;;;13.31;100.00;101855.25;6190679;28;20047;-70
2023/05/28 06:38:23;;;;;;;9.20;4.65;;;;;;;13.37;100.00;101862.88;6190738;28;20063;-71
2023/05/28 06:41:25;;;;;;;9.27;3.65;;;;;;;13.43;100.00;101857.28;6191470;28;20053;-70
2023/05/28 06:44:28;;;;;;;5.30;3.17;;;;;;;13.54;100.00;101864.72;6189548;28;20047;-71
2023/05/28 06:47:29;;;;;;;6.28;2.75;;;;;;;13.60;100.00;101858.28;6189771;28;20042;-70
2023/05/28 06:50:30;;;;;;;9.68;3.20;;;;;;;13.66;100.00;101850.91;6199081;28;20069;-71
2023/05/28 06:53:31;;;;;;;8.52;2.97;;;;;;;13.70;100.00;101855.09;6179576;28;20050;-70
2023/05/28 06:56:33;;;;;;;5.80;2.28;;;;;;;13.74;100.00;101858.47;6179434;28;20470;-70
2023/05/28 06:59:35;;;;;;;5.45;2.67;;;;;;;13.82;100.00;101856.31;6191810;28;20050;-71
2023/05/28 07:02:37;;;;;;;10.43;3.05;;;;;;;13.87;100.00;101850.78;6198973;28;20042;-70
2023/05/28 07:05:38;;;;;;;3.45;2.15;;;;;;;13.93;100.00;101847.84;6203236;28;20351;-71
2023/05/28 07:08:41;;;;;;;4.35;2.50;;;;;;;14.03;100.00;101854.38;6179078;28;20475;-70
2023/05/28 07:11:42;;;;;;;8.05;2.47;;;;;;;14.14;100.00;101843.28;6179121;28;20050;-71
2023/05/28 07:14:45;;;;;;;8.77;2.67;;;;;;;14.29;100.00;101847.78;6179142;28;20051;-71
2023/05/28 07:17:46;;;;;;;6.07;3.22;;;;;;;14.35;100.00;101854.53;6180051;28;20061;-71
2023/05/28 07:20:47;;;;;;;6.85;3.20;;;;;;;14.46;100.00;101855.69;6178516;28;20050;-71
2023/05/28 07:23:49;;;;;;;4.93;2.10;;;;;;;14.56;100.00;101845.53;6178704;28;20067;-71
2023/05/28 07:26:50;;;;;;;23.02;7.38;;;;;;;14.63;100.00;101848.72;6196556;28;20062;-71
2023/05/28 07:29:53;;;;;;;6.68;3.80;;;;;;;14.68;100.00;101854.63;6178087;28;20455;-71
2023/05/28 07:32:54;;;;;;;6.35;2.67;;;;;;;14.75;100.00;101847.19;6178849;28;20051;-71
2023/05/28 07:35:55;;;;;;;6.38;2.70;;;;;;;14.81;100.00;101847.75;6178326;28;20058;-71
2023/05/28 07:38:57;;;;;;;10.85;2.65;;;;;;;14.96;100.00;101844.25;6200135;28;20050;-67
2023/05/28 07:41:58;;;;;;;6.00;2.38;;;;;;;15.04;100.00;101849.13;6202617;28;20055;-67
2023/05/28 07:45:01;;;;;;;7.65;2.30;;;;;;;15.15;100.00;101854.69;6202290;28;20058;-71
2023/05/28 07:48:02;;;;;;;5.38;2.13;;;;;;;15.20;100.00;101846.50;6193709;28;20363;-71
2023/05/28 07:51:04;;;;;;;8.73;2.20;;;;;;;15.30;99.59;101854.78;6199732;28;20054;-70
2023/05/28 07:54:05;;;;;;;5.68;2.13;;;;;;;15.35;98.49;101856.25;6193880;28;20428;-71
2023/05/28 07:57:07;;;;;;;5.40;2.28;;;;;;;15.40;98.32;101856.00;6197752;28;20056;-71
2023/05/28 08:00:12;;;;;;;6.18;2.58;;;;;;;15.43;96.80;101854.00;6196360;28;20363;-70
2023/05/28 08:03:13;;;;;;;8.60;2.55;;;;;;;15.57;92.77;101852.38;6177880;28;20426;-71
2023/05/28 08:06:15;;;;;;;5.88;2.15;;;;;;;15.67;92.52;101853.63;6189554;28;20344;-71
2023/05/28 08:09:17;;;;;;;6.95;2.25;;;;;;;15.77;92.41;101857.44;6193075;28;20343;-71
2023/05/28 08:12:18;;;;;;;7.57;2.00;;;;;;;15.86;85.52;101856.06;6179028;28;20082;-71
2023/05/28 08:15:22;;;;;;;4.68;2.10;;;;;;;15.87;86.74;101853.31;6201652;28;20465;-71
2023/05/28 08:18:23;;;;;;;8.02;2.50;;;;;;;15.89;88.19;101856.72;6186304;28;20412;-71
2023/05/28 08:21:25;;;;;;;4.07;2.00;;;;;;;16.09;85.86;101852.09;6187867;28;20055;-71
2023/05/28 08:24:26;;;;;;;4.97;2.28;;;;;;;16.22;85.89;101853.91;6195472;28;20443;-71
2023/05/28 08:27:27;;;;;;;6.03;1.90;;;;;;;16.33;81.83;101847.09;6191363;28;20050;-71
2023/05/28 08:30:30;;;;;;;5.03;2.17;;;;;;;16.55;81.18;101854.63;6176817;28;20090;-71
2023/05/28 08:33:31;;;;;;;11.15;2.17;;;;;;;16.51;82.29;101858.41;6177399;28;20428;-71
2023/05/28 08:36:33;;;;;;;5.68;2.42;;;;;;;16.61;78.43;101856.91;6197352;28;20061;-70
2023/05/28 08:39:34;;;;;;;8.57;1.85;;;;;;;16.74;77.94;101858.75;6192845;28;20435;-71
2023/05/28 08:42:36;;;;;;;5.72;1.90;;;;;;;16.73;78.21;101858.84;6201304;28;20129;-71
2023/05/28 08:45:38;;;;;;;3.00;1.75;;;;;;;16.75;76.64;101856.94;6197665;28;20065;-71
2023/05/28 08:48:42;;;;;;;7.35;1.75;;;;;;;16.72;76.36;101859.81;6186389;28;20053;-70
2023/05/28 08:51:44;;;;;;;4.20;1.60;;;;;;;16.64;73.87;101852.28;6201088;28;20046;-71
2023/05/28 08:54:46;;;;;;;9.38;1.70;;;;;;;16.65;76.56;101855.78;6194270;28;20049;-71
2023/05/28 08:57:48;;;;;;;3.42;1.23;;;;;;;16.71;76.64;101845.66;6186747;28;20459;-71
2023/05/28 09:00:51;;;;;;;3.92;1.60;;;;;;;16.69;74.75;101841.38;6200637;28;20478;-71
2023/05/28 09:03:52;;;;;;;3.55;1.10;;;;;;;16.77;74.37;101848.91;6200893;28;20050;-71
2023/05/28 09:06:54;;;;;;;5.88;1.88;;;;;;;16.88;69.09;101849.94;6201084;28;20054;-70
2023/05/28 09:09:56;;;;;;;6.18;1.55;;;;;;;17.15;76.10;101843.84;6200422;28;20057;-71
2023/05/28 09:12:59;;;;;;;12.05;2.70;;;;;;;17.29;82.34;101845.63;6201096;28;20186;-71
2023/05/28 09:16:01;;;;;;;7.55;2.97;;;;;;;17.45;84.25;101841.03;6194292;28;20105;-71
2023/05/28 09:19:05;;;;;;;4.82;1.77;;;;;;;17.52;86.32;101839.66;6198576;28;20364;-71
2023/05/28 09:22:06;;;;;;;13.27;3.17;;;;;;;17.73;83.71;101840.94;6192877;28;20093;-71
2023/05/28 09:25:08;;;;;;;7.95;2.00;;;;;;;17.84;79.76;101836.72;6185477;28;20051;-71
2023/05/28 09:28:10;;;;;;;3.08;1.92;;;;;;;17.91;76.31;101828.25;6176687;28;20174;-71
2023/05/28 09:31:14;;;;;;;6.68;2.55;;;;;;;17.87;74.88;101824.09;6176021;28;20352;-71
2023/05/28 09:34:19;;;;;;;6.20;2.17;;;;;;;17.91;75.68;101825.59;6180084;28;20376;-70
2023/05/28 09:37:21;;;;;;;6.88;2.13;;;;;;;17.94;77.78;101827.16;6199030;28;20053;-71
2023/05/28 09:40:26;;;;;;;9.57;2.78;;;;;;;17.91;81.62;101833.56;6192557;28;20058;-71
2023/05/28 09:43:29;;;;;;;7.57;1.88;;;;;;;17.78;80.65;101827.34;6191197;28;20042;-72
2023/05/28 09:46:33;;;;;;;12.05;2.47;;;;;;;17.77;82.99;101822.16;6195943;28;20495;-72
2023/05/28 09:49:34;;;;;;;4.90;1.92;;;;;;;18.05;77.99;101831.78;6192387;28;20042;-72
2023/05/28 09:52:38;;;;;;;7.85;2.50;;;;;;;18.20;73.31;101815.63;6195860;28;20046;-73
2023/05/28 09:55:40;;;;;;;5.57;2.05;;;;;;;18.21;71.61;101827.13;6191124;28;20347;-72
2023/05/28 09:58:45;;;;;;;7.00;1.92;;;;;;;18.08;73.94;101813.81;6193697;28;20046;-72
2023/05/28 10:01:54;;;;;;;6.25;1.70;;;;;;;18.07;73.25;101813.91;6201168;28;20061;-72
2023/05/28 10:04:58;;;;;;;10.85;1.90;;;;;;;18.24;72.51;101817.13;6196834;28;20054;-72
2023/05/28 10:08:01;;;;;;;2.53;1.52;;;;;;;18.32;71.27;101807.78;6199182;28;20058;-72
2023/05/28 10:11:02;;;;;;;10.43;2.50;;;;;;;18.30;71.07;101815.84;6180944;28;20047;-72
2023/05/28 10:14:05;;;;;;;3.35;1.42;;;;;;;18.36;70.59;101806.59;6187752;28;20137;-71
2023/05/28 10:17:10;;;;;;;7.35;2.33;;;;;;;18.34;73.30;101808.50;6188152;28;20054;-71
2023/05/28 10:20:12;;;;;;;3.70;1.98;;;;;;;18.46;73.40;101811.16;6195886;28;20058;-70
2023/05/28 10:23:14;;;;;;;7.07;2.33;;;;;;;18.50;71.49;101811.81;6179979;28;20480;-71
2023/05/28 10:26:16;;;;;;;2.75;1.80;;;;;;;18.62;68.41;101815.41;6189310;28;20341;-71
2023/05/28 10:29:17;;;;;;;3.63;1.77;;;;;;;18.66;65.81;101808.91;6201314;28;20466;-72
2023/05/28 10:32:20;;;;;;;5.90;1.58;;;;;;;18.80;67.83;101813.28;6196513;28;20054;-71
2023/05/28 10:35:21;;;;;;;4.55;2.17;;;;;;;18.84;66.21;101799.66;6195849;28;20051;-71
2023/05/28 10:38:23;;;;;;;6.45;2.05;;;;;;;18.77;68.43;101805.53;6189981;28;20055;-71
2023/05/28 10:41:25;;;;;;;5.05;2.00;;;;;;;18.86;66.22;101808.41;6201374;28;20053;-71
2023/05/28 10:44:47;;;;;;;4.93;1.60;;;;;;;18.96;65.98;101811.25;6197863;28;20053;-71
2023/05/28 10:47:54;;;;;;;4.72;1.52;;;;;;;19.05;63.84;101802.59;6198612;28;20061;-72
2023/05/28 10:51:00;;;;;;;4.50;1.95;;;;;;;19.19;63.37;101812.25;6194960;28;20050;-72
2023/05/28 10:54:14;;;;;;;5.22;2.60;;;;;;;19.18;67.19;101808.75;6195021;28;20046;-72
2023/05/28 10:57:17;;;;;;;3.45;1.80;;;;;;;19.26;65.15;101801.06;6203692;28;20054;-72
2023/05/28 11:00:24;;;;;;;4.80;1.52;;;;;;;19.38;65.40;101801.09;6193740;28;20177;-71
2023/05/28 11:03:44;;;;;;;6.32;1.88;;;;;;;19.41;66.19;101796.41;6179322;28;20055;-71
2023/05/28 11:06:46;;;;;;;8.02;2.95;;;;;;;19.60;64.62;101801.25;6179109;28;20054;-72
2023/05/28 11:09:51;;;;;;;9.98;2.65;;;;;;;19.57;64.19;101805.91;6177596;28;20051;-71
2023/05/28 11:12:54;;;;;;;7.43;2.67;;;;;;;19.62;68.59;101803.78;6179019;28;20174;-71
2023/05/28 11:15:55;;;;;;;5.78;2.17;;;;;;;19.61;65.54;101799.41;6179146;28;20051;-72
2023/05/28 11:19:08;;;;;;;5.32;1.90;;;;;;;19.80;62.69;101802.41;6179346;28;20051;-72
2023/05/28 11:22:10;;;;;;;4.25;1.85;;;;;;;19.89;65.62;101800.84;6189341;28;20057;-71
2023/05/28 11:25:13;;;;;;;8.00;2.28;;;;;;;19.89;67.15;101788.38;6194849;28;20065;-71
2023/05/28 11:28:14;;;;;;;4.50;2.20;;;;;;;20.22;63.81;101800.97;6202979;28;20048;-72
2023/05/28 11:31:16;;;;;;;11.75;2.83;;;;;;;20.45;67.33;101807.19;6202172;28;20054;-71
2023/05/28 11:34:21;;;;;;;8.48;2.30;;;;;;;20.48;64.00;101798.97;6194198;28;20050;-71
2023/05/28 11:37:28;;;;;;;3.97;1.88;;;;;;;20.71;61.50;101809.63;6201139;28;20046;-72
2023/05/28 11:40:34;;;;;;;3.97;1.80;;;;;;;20.74;60.36;101806.72;6193589;28;20520;-72
2023/05/28 11:43:35;;;;;;;7.80;2.17;;;;;;;20.71;62.49;101793.59;6197611;28;20050;-71
2023/05/28 11:46:37;;;;;;;6.95;2.50;;;;;;;21.10;59.33;101805.59;6202361;28;20046;-72
2023/05/28 11:49:40;;;;;;;9.57;2.60;;;;;;;21.10;62.21;101810.09;6193091;28;20340;-71
2023/05/28 11:52:42;;;;;;;4.85;1.70;;;;;;;21.34;61.75;101805.44;6195339;28;20042;-71
2023/05/28 11:55:44;;;;;;;4.03;1.70;;;;;;;21.56;60.79;101795.66;6198725;28;20046;-71
2023/05/28 11:58:48;;;;;;;3.67;1.90;;;;;;;21.70;57.69;101788.19;6190471;28;20051;-71
2023/05/28 12:01:49;;;;;;;4.07;1.88;;;;;;;21.90;60.76;101788.34;6196176;28;20054;-71
2023/05/28 12:04:57;;;;;;;5.75;2.20;;;;;;;21.93;53.46;101783.56;6197865;28;20355;-72
2023/05/28 12:07:58;;;;;;;9.70;2.15;;;;;;;21.95;55.49;101775.41;6192191;28;20054;-71
2023/05/28 12:11:03;;;;;;;9.20;1.80;;;;;;;22.04;56.46;101775.47;6197432;28;20050;-71
2023/05/28 12:14:11;;;;;;;5.22;1.85;;;;;;;22.30;54.30;101775.06;6196027;28;20145;-72
2023/05/28 12:17:13;;;;;;;5.80;2.37;;;;;;;22.44;51.18;101779.25;6190456;28;20058;-72
2023/05/28 12:20:32;;;;;;;3.10;1.38;;;;;;;22.48;50.95;101775.31;6199691;28;20133;-72
2023/05/28 12:23:33;;;;;;;4.32;1.50;;;;;;;22.56;52.77;101780.84;6187403;28;20047;-72
2023/05/28 12:26:35;;;;;;;4.60;2.00;;;;;;;22.86;56.75;101771.09;6201779;28;20114;-71
2023/05/28 12:29:36;;;;;;;5.28;2.10;;;;;;;22.78;50.32;101769.94;6200432;28;20078;-72
2023/05/28 12:32:37;;;;;;;7.97;1.65;;;;;;;22.23;54.67;101760.53;6201276;28;20046;-72
2023/05/28 12:35:40;;;;;;;4.65;1.95;;;;;;;22.39;54.89;101762.72;6201442;28;20551;-71
2023/05/28 12:38:41;;;;;;;7.43;2.25;;;;;;;22.58;50.10;101748.59;6200653;28;20125;-72
2023/05/28 12:41:43;;;;;;;7.40;2.15;;;;;;;22.58;53.04;101757.47;6201453;28;20466;-72
2023/05/28 12:44:44;;;;;;;5.28;2.13;;;;;;;22.62;53.14;101749.97;6201136;28;20042;-71
2023/05/28 12:47:46;;;;;;;3.55;1.50;;;;;;;22.70;50.86;101752.84;6199908;28;20046;-71
2023/05/28 12:50:48;;;;;;;8.13;1.88;;;;;;;22.79;50.76;101750.19;6187594;28;20055;-71
2023/05/28 12:53:50;;;;;;;3.72;1.70;;;;;;;22.76;47.78;101755.00;6177280;28;20051;-71
2023/05/28 12:56:51;;;;;;;4.28;1.95;;;;;;;22.71;51.08;101747.34;6177005;28;20369;-71
2023/05/28 12:59:53;;;;;;;4.20;1.65;;;;;;;22.91;50.58;101740.25;6177502;28;20078;-71
2023/05/28 13:02:54;;;;;;;4.68;1.85;;;;;;;22.86;50.94;101752.34;6176629;28;20364;-70
2023/05/28 13:05:56;;;;;;;6.78;1.75;;;;;;;22.89;50.72;101744.00;6184488;28;20053;-70
2023/05/28 13:08:59;;;;;;;3.83;1.77;;;;;;;23.06;50.28;101732.63;6197476;28;20047;-71
2023/05/28 13:12:01;;;;;;;6.97;1.88;;;;;;;23.32;47.70;101732.94;6196646;28;20061;-70
2023/05/28 13:15:03;;;;;;;6.30;2.10;;;;;;;23.33;48.54;101733.78;6194255;28;20170;-71
2023/05/28 13:18:05;;;;;;;4.63;1.65;;;;;;;23.32;50.08;101735.63;6190409;28;20130;-70
2023/05/28 13:21:08;;;;;;;3.78;1.63;;;;;;;23.42;46.57;101731.09;6176499;28;20058;-71
2023/05/28 13:24:10;;;;;;;8.10;2.38;;;;;;;23.37;47.78;101725.31;6187238;28;20058;-70
2023/05/28 13:27:12;;;;;;;6.68;2.13;;;;;;;23.42;46.62;101720.38;6185337;28;20047;-71
2023/05/28 13:30:13;;;;;;;4.00;1.85;;;;;;;23.51;49.38;101726.72;6200008;28;20054;-70
2023/05/28 13:33:15;;;;;;;3.85;1.65;;;;;;;23.66;49.04;101728.00;6202143;28;20053;-70
2023/05/28 13:36:18;;;;;;;3.13;1.83;;;;;;;23.67;45.53;101723.50;6197440;28;20055;-71
2023/05/28 13:39:21;;;;;;;5.40;1.85;;;;;;;23.67;46.26;101727.03;6199950;28;20189;-71
2023/05/28 13:42:23;;;;;;;4.68;1.85;;;;;;;23.64;45.58;101721.94;6202841;28;20053;-71
2023/05/28 13:45:24;;;;;;;7.38;1.90;;;;;;;23.48;45.34;101716.28;6195052;28;20054;-71
2023/05/28 13:48:25;;;;;;;3.67;1.70;;;;;;;23.47;46.12;101717.28;6198267;28;20046;-71
2023/05/28 13:51:28;;;;;;;3.60;1.50;;;;;;;23.69;50.79;101713.47;6191385;28;20062;-71
2023/05/28 13:54:30;;;;;;;4.85;1.60;;;;;;;23.80;47.96;101716.00;6198008;28;20050;-71
2023/05/28 13:57:31;;;;;;;3.85;1.95;;;;;;;23.49;45.73;101712.63;6196378;28;20057;-71
2023/05/28 14:00:32;;;;;;;5.45;1.83;;;;;;;23.67;46.33;101712.78;6189891;28;20069;-70